sensor_id;sensor_type;location;lat;lon;timestamp;pressure;altitude;pressure_sealevel;temperature;humidity
36260;BME280;22296;50.824;5.644;2023-04-03T00:01:54;101923.63;;;11.48;61.71
36260;BME280;22296;50.824;5.644;2023-04-03T00:04:21;101923.63;;;11.48;61.86
36260;BME280;22296;50.824;5.644;2023-04-03T00:06:47;101933.59;;;11.44;61.93
36260;BME280;22296;50.824;5.644;2023-04-03T00:09:14;101924.75;;;11.47;61.81
36260;BME280;22296;50.824;5.644;2023-04-03T00:11:41;101926.38;;;11.43;61.92
36260;BME280;22296;50.824;5.644;2023-04-03T00:14:07;101926.13;;;11.44;61.75
36260;BME280;22296;50.824;5.644;2023-04-03T00:16:34;101918.66;;;11.45;61.92
36260;BME280;22296;50.824;5.644;2023-04-03T00:19:01;101920.88;;;11.43;61.88
36260;BME280;22296;50.824;5.644;2023-04-03T00:21:28;101925.31;;;11.44;61.79
36260;BME280;22296;50.824;5.644;2023-04-03T00:23:54;101927.22;;;11.43;61.77
36260;BME280;22296;50.824;5.644;2023-04-03T00:26:21;101928.06;;;11.39;62.03
36260;BME280;22296;50.824;5.644;2023-04-03T00:28:48;101918.94;;;11.38;61.90
36260;BME280;22296;50.824;5.644;2023-04-03T00:31:15;101929.13;;;11.38;61.94
36260;BME280;22296;50.824;5.644;2023-04-03T00:33:42;101929.13;;;11.38;61.88
36260;BME280;22296;50.824;5.644;2023-04-03T00:36:09;101918.09;;;11.38;61.78
36260;BME280;22296;50.824;5.644;2023-04-03T00:38:36;101935.75;;;11.37;62.03
36260;BME280;22296;50.824;5.644;2023-04-03T00:41:03;101921.94;;;11.37;61.83
36260;BME280;22296;50.824;5.644;2023-04-03T00:43:31;101939.34;;;11.37;62.07
36260;BME280;22296;50.824;5.644;2023-04-03T00:45:58;101933.53;;;11.34;61.80
36260;BME280;22296;50.824;5.644;2023-04-03T00:48:31;101946.78;;;11.32;61.86
36260;BME280;22296;50.824;5.644;2023-04-03T00:50:59;101945.13;;;11.31;61.86
36260;BME280;22296;50.824;5.644;2023-04-03T00:53:37;101942.94;;;11.33;61.88
36260;BME280;22296;50.824;5.644;2023-04-03T00:56:05;101944.31;;;11.30;62.02
36260;BME280;22296;50.824;5.644;2023-04-03T00:58:34;101946.22;;;11.30;61.95
36260;BME280;22296;50.824;5.644;2023-04-03T01:01:04;101944.56;;;11.29;62.05
36260;BME280;22296;50.824;5.644;2023-04-03T01:03:32;101949.78;;;11.25;62.18
36260;BME280;22296;50.824;5.644;2023-04-03T01:06:01;101947.84;;;11.26;62.12
36260;BME280;22296;50.824;5.644;2023-04-03T01:08:28;101946.22;;;11.25;61.94
36260;BME280;22296;50.824;5.644;2023-04-03T01:10:55;101950.63;;;11.26;62.02
36260;BME280;22296;50.824;5.644;2023-04-03T01:13:25;101947.31;;;11.24;62.01
36260;BME280;22296;50.824;5.644;2023-04-03T01:15:52;101952.53;;;11.25;62.00
36260;BME280;22296;50.824;5.644;2023-04-03T01:18:19;101953.91;;;11.23;61.88
36260;BME280;22296;50.824;5.644;2023-04-03T01:20:50;101945.06;;;11.21;62.18
36260;BME280;22296;50.824;5.644;2023-04-03T01:23:40;101953.34;;;11.21;62.09
36260;BME280;22296;50.824;5.644;2023-04-03T01:26:10;101952.81;;;11.19;62.08
36260;BME280;22296;50.824;5.644;2023-04-03T01:28:38;101961.34;;;11.17;62.04
36260;BME280;22296;50.824;5.644;2023-04-03T01:33:33;101951.97;;;11.18;62.14
36260;BME280;22296;50.824;5.644;2023-04-03T01:35:59;101956.66;;;11.18;62.08
36260;BME280;22296;50.824;5.644;2023-04-03T01:38:27;101954.44;;;11.15;61.99
36260;BME280;22296;50.824;5.644;2023-04-03T01:40:54;101956.66;;;11.18;62.05
36260;BME280;22296;50.824;5.644;2023-04-03T01:43:21;101958.88;;;11.16;62.11
36260;BME280;22296;50.824;5.644;2023-04-03T01:45:47;101956.34;;;11.14;62.18
36260;BME280;22296;50.824;5.644;2023-04-03T01:48:16;101956.34;;;11.14;62.06
36260;BME280;22296;50.824;5.644;2023-04-03T01:50:43;101954.44;;;11.15;62.12
36260;BME280;22296;50.824;5.644;2023-04-03T01:53:09;101952.19;;;11.12;62.23
36260;BME280;22296;50.824;5.644;2023-04-03T01:55:36;101960.22;;;11.13;62.20
36260;BME280;22296;50.824;5.644;2023-04-03T01:58:03;101963.25;;;11.12;62.18
36260;BME280;22296;50.824;5.644;2023-04-03T02:00:29;101960.75;;;11.10;62.17
36260;BME280;22296;50.824;5.644;2023-04-03T02:02:57;101961.00;;;11.09;62.26
36260;BME280;22296;50.824;5.644;2023-04-03T02:05:24;101969.28;;;11.09;62.24
36260;BME280;22296;50.824;5.644;2023-04-03T02:07:51;101960.47;;;11.07;62.06
36260;BME280;22296;50.824;5.644;2023-04-03T02:10:18;101963.78;;;11.09;62.02
36260;BME280;22296;50.824;5.644;2023-04-03T02:12:45;101957.41;;;11.08;62.20
36260;BME280;22296;50.824;5.644;2023-04-03T02:15:12;101956.03;;;11.11;61.89
36260;BME280;22296;50.824;5.644;2023-04-03T02:17:38;101953.88;;;11.13;61.81
36260;BME280;22296;50.824;5.644;2023-04-03T02:20:05;101952.97;;;11.02;62.26
36260;BME280;22296;50.824;5.644;2023-04-03T02:22:32;101955.47;;;11.04;62.19
36260;BME280;22296;50.824;5.644;2023-04-03T02:24:59;101954.94;;;11.07;62.10
36260;BME280;22296;50.824;5.644;2023-04-03T02:27:27;101955.50;;;11.09;62.06
36260;BME280;22296;50.824;5.644;2023-04-03T02:29:53;101948.28;;;11.03;62.19
36260;BME280;22296;50.824;5.644;2023-04-03T02:32:20;101955.50;;;11.09;62.02
36260;BME280;22296;50.824;5.644;2023-04-03T02:34:47;101958.22;;;11.04;62.29
36260;BME280;22296;50.824;5.644;2023-04-03T02:37:14;101957.16;;;11.05;62.17
36260;BME280;22296;50.824;5.644;2023-04-03T02:39:43;101961.53;;;11.01;62.16
36260;BME280;22296;50.824;5.644;2023-04-03T02:42:10;101953.56;;;11.04;61.99
36260;BME280;22296;50.824;5.644;2023-04-03T02:44:37;101954.38;;;11.05;61.96
36260;BME280;22296;50.824;5.644;2023-04-03T02:47:03;101954.31;;;11.00;62.21
36260;BME280;22296;50.824;5.644;2023-04-03T02:49:30;101956.31;;;11.04;62.19
36260;BME280;22296;50.824;5.644;2023-04-03T02:51:56;101969.53;;;11.02;62.12
36260;BME280;22296;50.824;5.644;2023-04-03T02:54:23;101962.19;;;11.18;62.02
36260;BME280;22296;50.824;5.644;2023-04-03T02:56:57;101962.72;;;11.20;62.11
36260;BME280;22296;50.824;5.644;2023-04-03T02:59:24;101963.22;;;11.07;62.85
36260;BME280;22296;50.824;5.644;2023-04-03T03:01:51;101967.03;;;11.01;62.48
36260;BME280;22296;50.824;5.644;2023-04-03T03:04:18;101958.16;;;10.94;62.54
36260;BME280;22296;50.824;5.644;2023-04-03T03:06:45;101966.69;;;10.87;62.67
36260;BME280;22296;50.824;5.644;2023-04-03T03:09:13;101959.25;;;10.88;62.77
36260;BME280;22296;50.824;5.644;2023-04-03T03:11:41;101971.06;;;10.83;62.86
36260;BME280;22296;50.824;5.644;2023-04-03T03:14:09;101968.81;;;10.80;62.82
36260;BME280;22296;50.824;5.644;2023-04-03T03:16:36;101971.81;;;10.73;63.03
36260;BME280;22296;50.824;5.644;2023-04-03T03:19:02;101969.09;;;10.78;62.94
36260;BME280;22296;50.824;5.644;2023-04-03T03:21:29;101979.00;;;10.74;63.05
36260;BME280;22296;50.824;5.644;2023-04-03T03:23:56;101974.00;;;10.71;62.89
36260;BME280;22296;50.824;5.644;2023-04-03T03:26:23;101975.94;;;10.71;63.04
36260;BME280;22296;50.824;5.644;2023-04-03T03:28:50;101983.66;;;10.69;62.94
36260;BME280;22296;50.824;5.644;2023-04-03T03:31:17;101981.72;;;10.69;63.03
36260;BME280;22296;50.824;5.644;2023-04-03T03:33:43;101978.97;;;10.69;62.91
36260;BME280;22296;50.824;5.644;2023-04-03T03:36:10;101979.81;;;10.70;62.95
36260;BME280;22296;50.824;5.644;2023-04-03T03:38:37;101981.19;;;10.72;62.89
36260;BME280;22296;50.824;5.644;2023-04-03T03:41:04;101974.53;;;10.68;62.88
36260;BME280;22296;50.824;5.644;2023-04-03T03:43:32;101978.94;;;10.64;62.90
36260;BME280;22296;50.824;5.644;2023-04-03T03:45:59;101974.50;;;10.63;62.95
36260;BME280;22296;50.824;5.644;2023-04-03T03:48:27;101977.78;;;10.60;63.03
36260;BME280;22296;50.824;5.644;2023-04-03T03:50:54;101976.09;;;10.59;63.07
36260;BME280;22296;50.824;5.644;2023-04-03T03:53:25;101984.13;;;10.61;63.09
36260;BME280;22296;50.824;5.644;2023-04-03T03:55:55;101981.09;;;10.62;62.81
36260;BME280;22296;50.824;5.644;2023-04-03T03:58:24;101983.84;;;10.62;62.99
36260;BME280;22296;50.824;5.644;2023-04-03T04:00:51;101991.03;;;10.58;62.87
36260;BME280;22296;50.824;5.644;2023-04-03T04:03:18;101986.59;;;10.57;63.03
36260;BME280;22296;50.824;5.644;2023-04-03T04:05:47;101980.81;;;10.59;63.13
36260;BME280;22296;50.824;5.644;2023-04-03T04:08:14;101978.59;;;10.56;63.15
36260;BME280;22296;50.824;5.644;2023-04-03T04:10:42;101974.72;;;10.57;62.98
36260;BME280;22296;50.824;5.644;2023-04-03T04:13:12;101981.59;;;10.54;63.02
36260;BME280;22296;50.824;5.644;2023-04-03T04:15:39;101978.84;;;10.54;62.93
36260;BME280;22296;50.824;5.644;2023-04-03T04:18:06;101986.03;;;10.55;62.97
36260;BME280;22296;50.824;5.644;2023-04-03T04:20:33;101986.56;;;10.52;62.96
36260;BME280;22296;50.824;5.644;2023-04-03T04:23:01;101981.03;;;10.52;62.90
36260;BME280;22296;50.824;5.644;2023-04-03T04:25:28;101986.00;;;10.50;62.94
36260;BME280;22296;50.824;5.644;2023-04-03T04:27:55;101977.72;;;10.50;62.99
36260;BME280;22296;50.824;5.644;2023-04-03T04:30:22;101984.88;;;10.51;62.86
36260;BME280;22296;50.824;5.644;2023-04-03T04:32:50;101986.22;;;10.49;62.98
36260;BME280;22296;50.824;5.644;2023-04-03T04:35:17;101981.56;;;10.49;62.83
36260;BME280;22296;50.824;5.644;2023-04-03T04:37:46;101987.59;;;10.46;62.90
36260;BME280;22296;50.824;5.644;2023-04-03T04:40:13;101989.78;;;10.44;63.04
36260;BME280;22296;50.824;5.644;2023-04-03T04:42:40;101991.44;;;10.45;63.01
36260;BME280;22296;50.824;5.644;2023-04-03T04:45:07;101993.63;;;10.43;63.04
36260;BME280;22296;50.824;5.644;2023-04-03T04:47:35;101999.16;;;10.43;62.87
36260;BME280;22296;50.824;5.644;2023-04-03T04:50:03;101999.44;;;10.42;62.94
36260;BME280;22296;50.824;5.644;2023-04-03T04:52:31;101997.19;;;10.39;63.05
36260;BME280;22296;50.824;5.644;2023-04-03T04:54:58;102004.34;;;10.40;62.96
36260;BME280;22296;50.824;5.644;2023-04-03T04:57:25;102001.81;;;10.33;63.15
36260;BME280;22296;50.824;5.644;2023-04-03T04:59:52;102007.38;;;10.38;63.11
36260;BME280;22296;50.824;5.644;2023-04-03T05:02:19;102007.38;;;10.38;63.13
36260;BME280;22296;50.824;5.644;2023-04-03T05:04:46;102006.22;;;10.34;63.01
36260;BME280;22296;50.824;5.644;2023-04-03T05:07:19;102002.91;;;10.32;62.97
36260;BME280;22296;50.824;5.644;2023-04-03T05:09:45;102005.38;;;10.34;63.02
36260;BME280;22296;50.824;5.644;2023-04-03T05:12:15;102014.25;;;10.36;62.95
36260;BME280;22296;50.824;5.644;2023-04-03T05:14:48;102010.91;;;10.34;63.01
36260;BME280;22296;50.824;5.644;2023-04-03T05:17:15;102015.63;;;10.33;63.08
36260;BME280;22296;50.824;5.644;2023-04-03T05:19:47;102012.25;;;10.31;63.01
36260;BME280;22296;50.824;5.644;2023-04-03T05:22:19;102022.44;;;10.30;63.06
36260;BME280;22296;50.824;5.644;2023-04-03T05:24:46;102019.13;;;10.28;63.09
36260;BME280;22296;50.824;5.644;2023-04-03T05:27:14;102015.03;;;10.31;62.99
36260;BME280;22296;50.824;5.644;2023-04-03T05:29:44;102013.38;;;10.30;63.01
36260;BME280;22296;50.824;5.644;2023-04-03T05:32:16;102012.78;;;10.28;62.98
36260;BME280;22296;50.824;5.644;2023-04-03T05:34:46;102016.66;;;10.27;63.17
36260;BME280;22296;50.824;5.644;2023-04-03T05:37:12;102024.31;;;10.25;63.09
36260;BME280;22296;50.824;5.644;2023-04-03T05:39:39;102023.50;;;10.24;63.09
36260;BME280;22296;50.824;5.644;2023-04-03T05:42:08;102021.00;;;10.23;63.08
36260;BME280;22296;50.824;5.644;2023-04-03T05:44:34;102021.84;;;10.23;63.01
36260;BME280;22296;50.824;5.644;2023-04-03T05:47:01;102034.22;;;10.21;63.06
36260;BME280;22296;50.824;5.644;2023-04-03T05:49:28;102027.03;;;10.20;63.04
36260;BME280;22296;50.824;5.644;2023-04-03T05:51:54;102034.22;;;10.21;62.99
36260;BME280;22296;50.824;5.644;2023-04-03T05:54:28;102028.72;;;10.21;63.02
36260;BME280;22296;50.824;5.644;2023-04-03T05:57:05;102037.00;;;10.21;63.05
36260;BME280;22296;50.824;5.644;2023-04-03T05:59:32;102038.91;;;10.20;63.13
36260;BME280;22296;50.824;5.644;2023-04-03T06:01:59;102036.41;;;10.19;63.13
36260;BME280;22296;50.824;5.644;2023-04-03T06:04:26;102036.41;;;10.19;63.08
36260;BME280;22296;50.824;5.644;2023-04-03T06:06:54;102042.41;;;10.16;63.00
36260;BME280;22296;50.824;5.644;2023-04-03T06:09:22;102037.50;;;10.18;63.23
36260;BME280;22296;50.824;5.644;2023-04-03T06:11:49;102037.22;;;10.19;63.01
36260;BME280;22296;50.824;5.644;2023-04-03T06:14:16;102033.59;;;10.14;63.08
36260;BME280;22296;50.824;5.644;2023-04-03T06:16:43;102043.03;;;10.18;63.11
36260;BME280;22296;50.824;5.644;2023-04-03T06:19:10;102043.25;;;10.16;62.99
36260;BME280;22296;50.824;5.644;2023-04-03T06:21:42;102036.34;;;10.14;62.93
36260;BME280;22296;50.824;5.644;2023-04-03T06:24:09;102036.91;;;10.16;63.13
36260;BME280;22296;50.824;5.644;2023-04-03T06:26:36;102039.09;;;10.14;63.07
36260;BME280;22296;50.824;5.644;2023-04-03T06:29:02;102043.78;;;10.13;63.09
36260;BME280;22296;50.824;5.644;2023-04-03T06:31:29;102040.78;;;10.15;63.05
36260;BME280;22296;50.824;5.644;2023-04-03T06:33:56;102036.41;;;10.19;62.83
36260;BME280;22296;50.824;5.644;2023-04-03T06:36:22;102038.59;;;10.17;62.78
36260;BME280;22296;50.824;5.644;2023-04-03T06:38:49;102037.22;;;10.19;62.78
36260;BME280;22296;50.824;5.644;2023-04-03T06:41:16;102038.06;;;10.20;62.83
36260;BME280;22296;50.824;5.644;2023-04-03T06:43:44;102040.78;;;10.15;63.10
36260;BME280;22296;50.824;5.644;2023-04-03T06:46:18;102038.38;;;10.23;62.65
36260;BME280;22296;50.824;5.644;2023-04-03T06:48:45;102039.22;;;10.24;62.70
36260;BME280;22296;50.824;5.644;2023-04-03T06:51:19;102044.22;;;10.27;62.69
36260;BME280;22296;50.824;5.644;2023-04-03T06:53:49;102048.38;;;10.29;62.63
36260;BME280;22296;50.824;5.644;2023-04-03T06:56:17;102048.31;;;10.24;62.72
36260;BME280;22296;50.824;5.644;2023-04-03T06:58:44;102056.56;;;10.24;62.70
36260;BME280;22296;50.824;5.644;2023-04-03T07:01:12;102056.38;;;10.31;62.43
36260;BME280;22296;50.824;5.644;2023-04-03T07:03:39;102058.63;;;10.34;62.35
36260;BME280;22296;50.824;5.644;2023-04-03T07:06:06;102065.16;;;10.28;62.68
36260;BME280;22296;50.824;5.644;2023-04-03T07:08:34;102070.13;;;10.26;62.75
36260;BME280;22296;50.824;5.644;2023-04-03T07:11:01;102064.34;;;10.27;62.52
36260;BME280;22296;50.824;5.644;2023-04-03T07:13:27;102069.66;;;10.34;62.43
36260;BME280;22296;50.824;5.644;2023-04-03T07:15:54;102071.84;;;10.32;62.62
36260;BME280;22296;50.824;5.644;2023-04-03T07:18:21;102069.69;;;10.39;62.21
36260;BME280;22296;50.824;5.644;2023-04-03T07:20:47;102075.16;;;10.34;62.48
36260;BME280;22296;50.824;5.644;2023-04-03T07:23:14;102079.59;;;10.35;62.39
36260;BME280;22296;50.824;5.644;2023-04-03T07:25:44;102084.59;;;10.38;62.53
36260;BME280;22296;50.824;5.644;2023-04-03T07:28:12;102088.97;;;10.34;62.64
36260;BME280;22296;50.824;5.644;2023-04-03T07:30:45;102085.63;;;10.32;62.63
36260;BME280;22296;50.824;5.644;2023-04-03T07:33:13;102090.63;;;10.35;62.50
36260;BME280;22296;50.824;5.644;2023-04-03T07:35:41;102085.06;;;10.30;62.79
36260;BME280;22296;50.824;5.644;2023-04-03T07:38:09;102091.16;;;10.32;62.79
36260;BME280;22296;50.824;5.644;2023-04-03T07:40:36;102095.59;;;10.33;62.86
36260;BME280;22296;50.824;5.644;2023-04-03T07:43:03;102088.75;;;10.41;62.49
36260;BME280;22296;50.824;5.644;2023-04-03T07:45:30;102096.47;;;10.39;62.63
36260;BME280;22296;50.824;5.644;2023-04-03T07:47:57;102091.19;;;10.37;62.51
36260;BME280;22296;50.824;5.644;2023-04-03T07:50:24;102083.44;;;10.34;62.66
36260;BME280;22296;50.824;5.644;2023-04-03T07:52:51;102084.28;;;10.35;62.70
36260;BME280;22296;50.824;5.644;2023-04-03T07:55:19;102083.44;;;10.34;62.60
36260;BME280;22296;50.824;5.644;2023-04-03T07:57:45;102082.88;;;10.32;62.78
36260;BME280;22296;50.824;5.644;2023-04-03T08:00:13;102078.75;;;10.35;62.77
36260;BME280;22296;50.824;5.644;2023-04-03T08:02:40;102084.00;;;10.36;62.81
36260;BME280;22296;50.824;5.644;2023-04-03T08:05:07;102089.84;;;10.40;62.54
36260;BME280;22296;50.824;5.644;2023-04-03T08:07:34;102088.97;;;10.34;62.71
36260;BME280;22296;50.824;5.644;2023-04-03T08:10:00;102082.91;;;10.37;62.72
36260;BME280;22296;50.824;5.644;2023-04-03T08:12:27;102091.75;;;10.39;62.67
36260;BME280;22296;50.824;5.644;2023-04-03T08:14:56;102090.63;;;10.35;62.70
36260;BME280;22296;50.824;5.644;2023-04-03T08:17:22;102085.63;;;10.32;62.75
36260;BME280;22296;50.824;5.644;2023-04-03T08:19:49;102087.31;;;10.33;62.77
36260;BME280;22296;50.824;5.644;2023-04-03T08:22:16;102085.69;;;10.37;62.58
36260;BME280;22296;50.824;5.644;2023-04-03T08:24:42;102085.13;;;10.35;62.86
36260;BME280;22296;50.824;5.644;2023-04-03T08:27:23;102082.31;;;10.30;62.72
36260;BME280;22296;50.824;5.644;2023-04-03T08:29:50;102091.75;;;10.39;62.54
36260;BME280;22296;50.824;5.644;2023-04-03T08:32:17;102087.31;;;10.33;62.67
36260;BME280;22296;50.824;5.644;2023-04-03T08:34:44;102089.75;;;10.29;62.77
36260;BME280;22296;50.824;5.644;2023-04-03T08:37:10;102092.81;;;10.33;62.69
36260;BME280;22296;50.824;5.644;2023-04-03T08:39:37;102100.50;;;10.31;62.80
36260;BME280;22296;50.824;5.644;2023-04-03T08:42:13;102101.84;;;10.28;62.83
36260;BME280;22296;50.824;5.644;2023-04-03T08:54:54;102087.00;;;10.29;62.78
36260;BME280;22296;50.824;5.644;2023-04-03T08:57:40;102093.34;;;10.30;62.71
36260;BME280;22296;50.824;5.644;2023-04-03T09:00:20;102100.50;;;10.31;62.63
36260;BME280;22296;50.824;5.644;2023-04-03T09:02:48;102099.94;;;10.29;62.59
36260;BME280;22296;50.824;5.644;2023-04-03T09:05:16;102103.25;;;10.31;62.64
36260;BME280;22296;50.824;5.644;2023-04-03T09:07:44;102094.16;;;10.30;62.48
36260;BME280;22296;50.824;5.644;2023-04-03T09:10:15;102085.63;;;10.32;62.50
36260;BME280;22296;50.824;5.644;2023-04-03T09:12:46;102097.22;;;10.34;62.54
36260;BME280;22296;50.824;5.644;2023-04-03T09:15:22;102102.19;;;10.32;62.61
36260;BME280;22296;50.824;5.644;2023-04-03T09:18:06;102094.97;;;10.31;62.44
36260;BME280;22296;50.824;5.644;2023-04-03T09:23:21;102090.31;;;10.32;62.45
36260;BME280;22296;50.824;5.644;2023-04-03T09:25:49;102090.06;;;10.33;62.33
36260;BME280;22296;50.824;5.644;2023-04-03T09:28:18;102088.38;;;10.32;62.20
36260;BME280;22296;50.824;5.644;2023-04-03T09:30:45;102082.31;;;10.30;62.39
36260;BME280;22296;50.824;5.644;2023-04-03T09:33:11;102091.16;;;10.32;62.34
36260;BME280;22296;50.824;5.644;2023-04-03T09:35:38;102090.88;;;10.34;62.26
36260;BME280;22296;50.824;5.644;2023-04-03T09:38:18;102087.31;;;10.33;62.08
36260;BME280;22296;50.824;5.644;2023-04-03T09:40:48;102082.59;;;10.34;62.22
36260;BME280;22296;50.824;5.644;2023-04-03T09:45:47;102082.59;;;10.34;61.93
36260;BME280;22296;50.824;5.644;2023-04-03T09:53:32;102075.16;;;10.34;62.03
36260;BME280;22296;50.824;5.644;2023-04-03T09:55:59;102075.72;;;10.36;62.02
36260;BME280;22296;50.824;5.644;2023-04-03T09:58:27;102073.56;;;10.38;61.86
36260;BME280;22296;50.824;5.644;2023-04-03T10:04:10;102073.56;;;10.38;61.92
36260;BME280;22296;50.824;5.644;2023-04-03T10:06:39;102074.66;;;10.37;61.86
36260;BME280;22296;50.824;5.644;2023-04-03T10:14:35;102069.69;;;10.39;61.82
36260;BME280;22296;50.824;5.644;2023-04-03T10:30:18;102056.50;;;10.41;61.66
36260;BME280;22296;50.824;5.644;2023-04-03T10:32:53;102057.34;;;10.42;61.68
36260;BME280;22296;50.824;5.644;2023-04-03T10:38:10;102052.13;;;10.45;61.38
36260;BME280;22296;50.824;5.644;2023-04-03T10:43:21;102045.47;;;10.41;61.50
36260;BME280;22296;50.824;5.644;2023-04-03T10:51:11;102037.75;;;10.43;61.24
36260;BME280;22296;50.824;5.644;2023-04-03T10:53:39;102044.69;;;10.46;61.14
36260;BME280;22296;50.824;5.644;2023-04-03T10:56:13;102032.25;;;10.43;61.30
36260;BME280;22296;50.824;5.644;2023-04-03T10:58:43;102027.88;;;10.47;61.13
36260;BME280;22296;50.824;5.644;2023-04-03T11:01:13;102030.03;;;10.45;61.23
36260;BME280;22296;50.824;5.644;2023-04-03T11:03:45;102029.53;;;10.48;61.10
36260;BME280;22296;50.824;5.644;2023-04-03T11:06:15;102040.03;;;10.51;60.99
36260;BME280;22296;50.824;5.644;2023-04-03T11:09:03;102035.03;;;10.48;60.96
36260;BME280;22296;50.824;5.644;2023-04-03T11:11:37;102024.00;;;10.48;61.28
36260;BME280;22296;50.824;5.644;2023-04-03T11:14:08;102025.69;;;10.49;61.00
36260;BME280;22296;50.824;5.644;2023-04-03T11:16:38;102026.53;;;10.50;60.96
36260;BME280;22296;50.824;5.644;2023-04-03T11:19:20;102014.66;;;10.49;60.94
36260;BME280;22296;50.824;5.644;2023-04-03T11:24:22;102020.22;;;10.54;60.98
36260;BME280;22296;50.824;5.644;2023-04-03T11:26:51;102013.28;;;10.52;60.85
36260;BME280;22296;50.824;5.644;2023-04-03T11:29:20;102013.00;;;10.53;60.85
36260;BME280;22296;50.824;5.644;2023-04-03T11:34:46;102014.44;;;10.56;60.77
36260;BME280;22296;50.824;5.644;2023-04-03T11:37:16;102016.94;;;10.57;60.79
36260;BME280;22296;50.824;5.644;2023-04-03T11:39:54;102011.72;;;10.61;60.50
36260;BME280;22296;50.824;5.644;2023-04-03T11:47:48;101994.34;;;10.60;60.70
36260;BME280;22296;50.824;5.644;2023-04-03T12:13:36;101975.06;;;10.65;60.11
36260;BME280;22296;50.824;5.644;2023-04-03T12:16:08;101967.91;;;10.64;60.36
36260;BME280;22296;50.824;5.644;2023-04-03T12:21:19;101969.53;;;10.65;60.29
36260;BME280;22296;50.824;5.644;2023-04-03T12:37:39;101940.34;;;10.69;60.11
36260;BME280;22296;50.824;5.644;2023-04-03T12:40:07;101945.31;;;10.67;60.14
36260;BME280;22296;50.824;5.644;2023-04-03T12:48:03;101922.13;;;10.68;60.05
36260;BME280;22296;50.824;5.644;2023-04-03T12:50:31;101931.53;;;10.72;59.87
36260;BME280;22296;50.824;5.644;2023-04-03T12:53:00;101923.81;;;10.74;59.95
36260;BME280;22296;50.824;5.644;2023-04-03T12:55:28;101923.81;;;10.74;59.75
36260;BME280;22296;50.824;5.644;2023-04-03T12:57:55;101924.13;;;10.78;59.67
36260;BME280;22296;50.824;5.644;2023-04-03T13:02:52;101919.44;;;10.78;59.57
36260;BME280;22296;50.824;5.644;2023-04-03T13:05:18;101906.19;;;10.80;59.46
36260;BME280;22296;50.824;5.644;2023-04-03T13:07:55;101904.84;;;10.83;59.41
36260;BME280;22296;50.824;5.644;2023-04-03T13:10:24;101909.50;;;10.82;59.45
36260;BME280;22296;50.824;5.644;2023-04-03T13:15:21;101905.66;;;10.83;59.54
36260;BME280;22296;50.824;5.644;2023-04-03T13:17:49;101914.78;;;10.84;59.40
36260;BME280;22296;50.824;5.644;2023-04-03T13:23:04;101907.34;;;10.84;59.37
36260;BME280;22296;50.824;5.644;2023-04-03T13:25:33;101897.94;;;10.85;59.48
36260;BME280;22296;50.824;5.644;2023-04-03T13:28:01;101901.28;;;10.88;59.14
36260;BME280;22296;50.824;5.644;2023-04-03T13:30:40;101897.41;;;10.88;59.19
36260;BME280;22296;50.824;5.644;2023-04-03T13:33:24;101907.91;;;10.86;59.24
36260;BME280;22296;50.824;5.644;2023-04-03T13:35:56;101899.63;;;10.86;59.33
36260;BME280;22296;50.824;5.644;2023-04-03T13:38:28;101896.56;;;10.88;59.16
36260;BME280;22296;50.824;5.644;2023-04-03T13:40:59;101895.47;;;10.89;59.04
36260;BME280;22296;50.824;5.644;2023-04-03T13:43:31;101891.34;;;10.86;59.07
36260;BME280;22296;50.824;5.644;2023-04-03T13:45:59;101891.88;;;10.88;59.06
36260;BME280;22296;50.824;5.644;2023-04-03T13:48:26;101888.88;;;10.90;58.97
36260;BME280;22296;50.824;5.644;2023-04-03T13:53:20;101884.22;;;10.96;58.85
36260;BME280;22296;50.824;5.644;2023-04-03T13:56:04;101890.81;;;10.95;58.77
36260;BME280;22296;50.824;5.644;2023-04-03T13:58:32;101887.81;;;10.96;58.72
36260;BME280;22296;50.824;5.644;2023-04-03T14:06:06;101887.00;;;11.01;58.50
36260;BME280;22296;50.824;5.644;2023-04-03T14:08:33;101886.47;;;11.04;58.51
36260;BME280;22296;50.824;5.644;2023-04-03T14:11:19;101879.84;;;11.05;58.43
36260;BME280;22296;50.824;5.644;2023-04-03T14:13:47;101881.78;;;11.09;58.24
36260;BME280;22296;50.824;5.644;2023-04-03T14:16:14;101873.22;;;11.11;58.29
36260;BME280;22296;50.824;5.644;2023-04-03T14:18:44;101873.81;;;11.13;58.14
36260;BME280;22296;50.824;5.644;2023-04-03T14:21:11;101863.84;;;11.12;58.32
36260;BME280;22296;50.824;5.644;2023-04-03T14:23:38;101872.69;;;11.14;58.20
36260;BME280;22296;50.824;5.644;2023-04-03T14:26:09;101858.88;;;11.14;58.12
36260;BME280;22296;50.824;5.644;2023-04-03T14:28:37;101866.63;;;11.12;58.05
36260;BME280;22296;50.824;5.644;2023-04-03T14:31:03;101857.78;;;11.15;57.97
36260;BME280;22296;50.824;5.644;2023-04-03T14:33:31;101861.09;;;11.17;57.90
36260;BME280;22296;50.824;5.644;2023-04-03T14:36:01;101855.31;;;11.18;57.94
36260;BME280;22296;50.824;5.644;2023-04-03T14:38:30;101858.38;;;11.22;57.79
36260;BME280;22296;50.824;5.644;2023-04-03T14:40:58;101851.75;;;11.23;57.89
36260;BME280;22296;50.824;5.644;2023-04-03T14:43:41;101855.03;;;11.20;57.93
36260;BME280;22296;50.824;5.644;2023-04-03T14:48:40;101846.81;;;11.25;57.77
36260;BME280;22296;50.824;5.644;2023-04-03T14:51:07;101839.06;;;11.27;57.63
36260;BME280;22296;50.824;5.644;2023-04-03T14:53:34;101836.84;;;11.29;57.53
36260;BME280;22296;50.824;5.644;2023-04-03T14:56:09;101836.84;;;11.29;57.54
36260;BME280;22296;50.824;5.644;2023-04-03T14:58:37;101837.97;;;11.33;57.34
36260;BME280;22296;50.824;5.644;2023-04-03T15:01:03;101843.50;;;11.33;57.61
36260;BME280;22296;50.824;5.644;2023-04-03T15:03:30;101831.34;;;11.34;57.54
36260;BME280;22296;50.824;5.644;2023-04-03T15:05:57;101834.94;;;11.34;57.54
36260;BME280;22296;50.824;5.644;2023-04-03T15:08:25;101829.41;;;11.34;57.58